Time;durP1;ratioP1;P1;durP2;ratioP2;P2;SDS_P1;SDS_P2;PMS_P1;PMS_P2;Temp;Humidity;BMP_temperature;BMP_pressure;BME280_temperature;BME280_humidity;BME280_pressure;Samples;Min_cycle;Max_cycle;Signal;HPM_P1;HPM_P2
2023/01/27 00:01:28;;;;;;;0.10;0.10;;;5.50;85.80;;;;;;4950290;28;20134;-69
2023/01/27 00:03:54;;;;;;;0.00;0.00;;;5.40;86.00;;;;;;4955755;28;20984;-69
2023/01/27 00:06:20;;;;;;;0.03;0.03;;;5.50;86.20;;;;;;4958188;28;20054;-69
2023/01/27 00:08:45;;;;;;;0.10;0.10;;;5.40;86.20;;;;;;4951980;28;20404;-69
2023/01/27 00:13:55;;;;;;;0.10;0.10;;;5.60;85.70;;;;;;4962250;28;20145;-70
2023/01/27 00:16:21;;;;;;;0.08;0.08;;;5.70;85.40;;;;;;4942382;28;20138;-70
2023/01/27 00:18:46;;;;;;;0.00;0.00;;;5.60;85.30;;;;;;4955446;28;20054;-70
2023/01/27 00:26:40;;;;;;;0.00;0.00;;;5.50;86.00;;;;;;4955191;28;20059;-70
2023/01/27 00:29:06;;;;;;;0.00;0.00;;;5.50;86.00;;;;;;4967946;28;20539;-69
2023/01/27 00:34:15;;;;;;;0.40;0.40;;;5.30;86.40;;;;;;4951043;28;20055;-70
2023/01/27 00:36:41;;;;;;;0.00;0.00;;;5.40;86.50;;;;;;4950648;28;20047;-70
2023/01/27 00:39:09;;;;;;;0.00;0.00;;;5.30;85.90;;;;;;4953255;28;20078;-70
2023/01/27 00:41:35;;;;;;;0.00;0.00;;;5.30;86.00;;;;;;4956721;28;20047;-70
2023/01/27 00:44:01;;;;;;;0.00;0.00;;;5.10;86.20;;;;;;4954898;28;20055;-70
2023/01/27 00:46:27;;;;;;;0.32;0.32;;;5.10;86.40;;;;;;4954720;28;20039;-69
2023/01/27 00:48:53;;;;;;;0.00;0.00;;;5.10;86.10;;;;;;4955028;28;20043;-70
2023/01/27 00:51:19;;;;;;;0.10;0.10;;;5.10;86.20;;;;;;4937490;29;20043;-70
2023/01/27 00:53:45;;;;;;;0.00;0.00;;;5.10;86.40;;;;;;4972945;28;20411;-69
2023/01/27 00:56:11;;;;;;;0.00;0.00;;;5.00;86.60;;;;;;4956331;28;20055;-69
2023/01/27 00:58:37;;;;;;;0.00;0.00;;;5.00;86.50;;;;;;4960896;28;20054;-69
2023/01/27 01:01:06;;;;;;;0.25;0.25;;;5.10;86.50;;;;;;4972386;28;20035;-69
2023/01/27 01:03:33;;;;;;;5.85;1.95;;;4.90;86.60;;;;;;4960885;28;20587;-69
2023/01/27 01:06:06;;;;;;;0.00;0.00;;;4.90;86.60;;;;;;4954754;28;20137;-69
2023/01/27 01:08:34;;;;;;;0.00;0.00;;;4.90;86.40;;;;;;4962468;28;20047;-69
2023/01/27 01:10:59;;;;;;;1.30;0.95;;;4.90;86.80;;;;;;4956113;28;20054;-69
2023/01/27 01:13:29;;;;;;;0.00;0.00;;;5.10;86.30;;;;;;4963812;28;20043;-69
2023/01/27 01:15:56;;;;;;;0.00;0.00;;;5.00;86.20;;;;;;4954419;28;20078;-69
2023/01/27 01:18:22;;;;;;;0.00;0.00;;;4.90;86.50;;;;;;4949757;28;20085;-69
2023/01/27 01:20:48;;;;;;;0.00;0.00;;;4.80;86.70;;;;;;4955776;28;20129;-69
2023/01/27 01:23:14;;;;;;;0.00;0.00;;;4.80;86.70;;;;;;4971214;28;20138;-69
2023/01/27 01:25:40;;;;;;;0.00;0.00;;;4.70;86.90;;;;;;4954082;28;20794;-69
2023/01/27 01:28:07;;;;;;;0.00;0.00;;;4.70;87.00;;;;;;4965434;28;20049;-69
2023/01/27 01:30:36;;;;;;;0.10;0.10;;;4.90;86.90;;;;;;4961953;28;20038;-69
2023/01/27 01:33:03;;;;;;;0.03;0.03;;;4.80;86.90;;;;;;4972979;28;20061;-69
2023/01/27 01:35:29;;;;;;;0.00;0.00;;;4.80;87.00;;;;;;4972275;28;20521;-69
2023/01/27 01:37:54;;;;;;;0.00;0.00;;;4.80;86.90;;;;;;4972407;28;20057;-69
2023/01/27 01:40:21;;;;;;;0.00;0.00;;;4.90;87.00;;;;;;4948820;29;20035;-69
2023/01/27 01:42:50;;;;;;;0.00;0.00;;;4.80;86.90;;;;;;4971276;28;20069;-69
2023/01/27 01:45:30;;;;;;;0.00;0.00;;;4.80;87.00;;;;;;4959658;28;20077;-69
2023/01/27 01:48:02;;;;;;;0.20;0.20;;;4.80;87.00;;;;;;4955692;28;20047;-69
2023/01/27 01:50:28;;;;;;;2.10;2.00;;;4.80;87.10;;;;;;4962784;28;20141;-69
2023/01/27 01:52:54;;;;;;;0.10;0.10;;;4.80;87.00;;;;;;4972383;28;20057;-69
2023/01/27 01:55:22;;;;;;;0.00;0.00;;;4.80;87.10;;;;;;4960569;28;20656;-69
2023/01/27 01:57:48;;;;;;;0.00;0.00;;;4.80;87.10;;;;;;4953936;28;20059;-69
2023/01/27 02:00:14;;;;;;;0.00;0.00;;;4.70;87.20;;;;;;4943569;29;20040;-69
2023/01/27 02:02:40;;;;;;;0.00;0.00;;;4.70;87.20;;;;;;4956116;28;20053;-69
2023/01/27 02:05:19;;;;;;;0.80;0.80;;;4.70;87.20;;;;;;4953929;28;20051;-69
2023/01/27 02:07:56;;;;;;;0.05;0.05;;;4.70;87.30;;;;;;4972120;28;20046;-70
2023/01/27 02:10:22;;;;;;;0.00;0.00;;;4.60;87.40;;;;;;4957069;28;20047;-69
2023/01/27 02:12:47;;;;;;;0.00;0.00;;;4.70;87.40;;;;;;4953036;29;20054;-69
2023/01/27 02:15:13;;;;;;;0.00;0.00;;;4.60;87.50;;;;;;4940459;28;20028;-69
2023/01/27 02:17:39;;;;;;;0.00;0.00;;;4.60;87.50;;;;;;4936181;28;20420;-69
2023/01/27 02:20:32;;;;;;;0.30;0.30;;;4.70;87.60;;;;;;4962423;28;20039;-69
2023/01/27 02:23:13;;;;;;;0.05;0.05;;;4.70;87.50;;;;;;4970289;28;20058;-69
2023/01/27 02:26:16;;;;;;;0.00;0.00;;;4.70;87.50;;;;;;4965330;28;20094;-69
2023/01/27 02:28:42;;;;;;;0.10;0.10;;;4.70;87.40;;;;;;4916524;28;20047;-69
2023/01/27 02:31:07;;;;;;;0.00;0.00;;;4.70;87.50;;;;;;4971184;28;20673;-69
2023/01/27 02:33:33;;;;;;;0.13;0.13;;;4.70;87.50;;;;;;4971796;28;20054;-69
2023/01/27 02:36:10;;;;;;;0.00;0.00;;;4.70;87.50;;;;;;4937100;28;20139;-69
2023/01/27 02:38:43;;;;;;;0.00;0.00;;;4.70;87.40;;;;;;4953031;28;20113;-70
2023/01/27 02:41:38;;;;;;;0.00;0.00;;;4.70;87.50;;;;;;4969720;28;20130;-69
2023/01/27 02:44:04;;;;;;;0.30;0.30;;;4.60;87.40;;;;;;4922497;29;20133;-69
2023/01/27 02:46:30;;;;;;;0.15;0.15;;;4.70;87.40;;;;;;4952909;28;20117;-69
2023/01/27 02:48:56;;;;;;;0.10;0.10;;;4.80;87.30;;;;;;4958397;28;20097;-69
2023/01/27 02:51:21;;;;;;;0.00;0.00;;;4.70;87.10;;;;;;4969513;28;20047;-69
2023/01/27 02:53:47;;;;;;;0.10;0.10;;;4.70;87.10;;;;;;4971427;28;20053;-69
2023/01/27 02:56:13;;;;;;;0.00;0.00;;;4.70;87.10;;;;;;4971031;28;20038;-69
2023/01/27 02:58:38;;;;;;;0.00;0.00;;;4.90;87.20;;;;;;4952612;28;20098;-69
2023/01/27 03:01:04;;;;;;;0.10;0.10;;;4.70;86.60;;;;;;4970319;28;20400;-69
2023/01/27 03:03:29;;;;;;;0.00;0.00;;;4.90;86.20;;;;;;4936201;28;20055;-69
2023/01/27 03:05:55;;;;;;;0.20;0.20;;;4.80;85.30;;;;;;4971605;28;20108;-69
2023/01/27 03:08:21;;;;;;;0.00;0.00;;;4.80;85.60;;;;;;4969158;28;20053;-69
2023/01/27 03:10:54;;;;;;;0.15;0.15;;;4.90;85.20;;;;;;4971001;28;20051;-69
2023/01/27 03:13:21;;;;;;;0.00;0.00;;;4.80;85.20;;;;;;4970629;28;20047;-69
2023/01/27 03:18:31;;;;;;;0.00;0.00;;;4.80;84.20;;;;;;4954386;28;20629;-69
2023/01/27 03:21:03;;;;;;;0.00;0.00;;;4.70;84.30;;;;;;4966862;28;20178;-69
2023/01/27 03:23:28;;;;;;;0.00;0.00;;;4.80;83.90;;;;;;4949415;28;20100;-69
2023/01/27 03:25:54;;;;;;;0.08;0.08;;;4.70;83.50;;;;;;4961136;28;20134;-69
2023/01/27 03:28:20;;;;;;;0.00;0.00;;;4.70;83.60;;;;;;4951999;28;20078;-69
2023/01/27 03:30:45;;;;;;;0.00;0.00;;;4.70;83.80;;;;;;4962735;28;20531;-69
2023/01/27 03:33:11;;;;;;;0.00;0.00;;;4.70;83.90;;;;;;4937361;28;20069;-69
2023/01/27 03:35:38;;;;;;;0.05;0.05;;;4.70;84.00;;;;;;4953468;28;20385;-69
2023/01/27 03:46:24;;;;;;;0.00;0.00;;;4.80;83.10;;;;;;4951864;28;20068;-69
2023/01/27 03:48:52;;;;;;;0.00;0.00;;;5.00;82.70;;;;;;4922358;28;20158;-70
2023/01/27 03:51:20;;;;;;;0.03;0.03;;;4.90;82.10;;;;;;4959480;28;20078;-69
2023/01/27 03:53:45;;;;;;;0.05;0.05;;;4.90;81.90;;;;;;4946528;28;20047;-69
2023/01/27 03:56:11;;;;;;;0.00;0.00;;;4.80;81.90;;;;;;4969893;28;20423;-69
2023/01/27 03:58:38;;;;;;;0.00;0.00;;;4.90;81.60;;;;;;4968511;28;20424;-69
2023/01/27 04:01:15;;;;;;;0.10;0.10;;;4.80;81.90;;;;;;4962536;28;20093;-69
2023/01/27 04:09:27;;;;;;;0.00;0.00;;;4.70;81.60;;;;;;4964234;28;20044;-69
2023/01/27 04:11:53;;;;;;;0.03;0.03;;;4.70;81.70;;;;;;4925088;29;20178;-69
2023/01/27 04:14:40;;;;;;;0.00;0.00;;;4.80;81.30;;;;;;4933596;28;20090;-69
2023/01/27 04:17:17;;;;;;;0.00;0.00;;;4.70;81.20;;;;;;4918563;29;20133;-69
2023/01/27 04:19:43;;;;;;;0.00;0.00;;;4.70;81.50;;;;;;4958533;28;20085;-70
2023/01/27 04:22:10;;;;;;;0.00;0.00;;;4.60;81.30;;;;;;4962453;28;20455;-68
2023/01/27 04:24:36;;;;;;;0.00;0.00;;;4.70;81.30;;;;;;4970012;28;20459;-69
2023/01/27 04:27:07;;;;;;;0.00;0.00;;;4.60;81.60;;;;;;4970021;28;20130;-69
2023/01/27 04:29:35;;;;;;;0.00;0.00;;;4.50;82.00;;;;;;4964861;28;20512;-69
2023/01/27 04:32:03;;;;;;;0.00;0.00;;;4.60;82.20;;;;;;4938624;29;20142;-69
2023/01/27 04:34:28;;;;;;;0.00;0.00;;;4.50;82.20;;;;;;4950770;28;20055;-69
2023/01/27 04:36:55;;;;;;;0.00;0.00;;;4.40;82.40;;;;;;4953512;28;20050;-69
2023/01/27 04:39:21;;;;;;;0.00;0.00;;;4.40;82.60;;;;;;4965570;28;20122;-69
2023/01/27 04:41:47;;;;;;;0.00;0.00;;;4.50;82.50;;;;;;4959959;28;20526;-69
2023/01/27 04:44:13;;;;;;;0.00;0.00;;;4.60;82.10;;;;;;4968179;28;20042;-69
2023/01/27 04:46:39;;;;;;;0.00;0.00;;;4.60;81.80;;;;;;4936565;28;20043;-69
2023/01/27 04:49:05;;;;;;;0.10;0.10;;;4.60;81.60;;;;;;4966719;28;20047;-69
2023/01/27 04:51:32;;;;;;;0.00;0.00;;;4.60;81.30;;;;;;4968400;28;20034;-69
2023/01/27 04:53:57;;;;;;;0.00;0.00;;;4.60;81.40;;;;;;4952715;28;20046;-69
2023/01/27 04:56:28;;;;;;;0.20;0.20;;;4.50;81.20;;;;;;4969797;28;20515;-69
2023/01/27 04:58:57;;;;;;;0.00;0.00;;;4.60;81.30;;;;;;4968907;28;20042;-69
2023/01/27 05:01:23;;;;;;;0.00;0.00;;;4.50;81.00;;;;;;4953714;28;20054;-71
2023/01/27 05:03:49;;;;;;;0.00;0.00;;;4.40;81.20;;;;;;4936792;28;20043;-70
2023/01/27 05:06:14;;;;;;;0.00;0.00;;;4.40;81.50;;;;;;4944669;28;20047;-70
2023/01/27 05:08:40;;;;;;;0.00;0.00;;;4.50;81.20;;;;;;4965060;28;20051;-68
2023/01/27 05:11:06;;;;;;;0.00;0.00;;;4.40;81.30;;;;;;4960596;28;20481;-66
2023/01/27 05:13:31;;;;;;;0.05;0.05;;;4.30;81.50;;;;;;4963787;28;20050;-66
2023/01/27 05:16:17;;;;;;;0.10;0.10;;;4.30;81.70;;;;;;4968326;28;20132;-68
2023/01/27 05:18:44;;;;;;;0.00;0.00;;;4.30;81.60;;;;;;4968385;28;20054;-67
2023/01/27 05:21:16;;;;;;;0.00;0.00;;;4.20;81.40;;;;;;4936435;28;20539;-67
2023/01/27 05:23:42;;;;;;;0.10;0.10;;;4.20;81.60;;;;;;4963775;28;20051;-67
2023/01/27 05:26:19;;;;;;;0.15;0.15;;;4.30;81.60;;;;;;4965726;28;20055;-67
2023/01/27 05:28:46;;;;;;;0.00;0.00;;;4.30;81.20;;;;;;4972663;28;20482;-67
2023/01/27 05:31:17;;;;;;;0.00;0.00;;;4.30;81.50;;;;;;4965814;28;20129;-68
2023/01/27 05:33:44;;;;;;;0.00;0.00;;;4.30;81.20;;;;;;4969521;28;20043;-70
2023/01/27 05:36:11;;;;;;;0.28;0.28;;;4.30;81.00;;;;;;4960045;28;20051;-68
2023/01/27 05:38:37;;;;;;;0.00;0.00;;;4.40;80.80;;;;;;4966567;28;20098;-68
2023/01/27 05:41:06;;;;;;;0.00;0.00;;;4.30;80.80;;;;;;4968161;28;20464;-68
2023/01/27 05:43:33;;;;;;;0.00;0.00;;;4.30;80.80;;;;;;4970172;28;20125;-68
2023/01/27 05:46:06;;;;;;;0.00;0.00;;;4.30;80.10;;;;;;4972046;28;20054;-68
2023/01/27 05:48:37;;;;;;;0.00;0.00;;;4.60;78.60;;;;;;4954944;28;20070;-68
2023/01/27 05:51:04;;;;;;;0.00;0.00;;;4.40;78.80;;;;;;4966754;28;20838;-68
2023/01/27 05:53:30;;;;;;;0.00;0.00;;;4.40;79.20;;;;;;4966050;28;20692;-68
2023/01/27 05:55:55;;;;;;;0.00;0.00;;;4.60;78.90;;;;;;4971912;28;20117;-68
2023/01/27 05:58:21;;;;;;;0.00;0.00;;;4.40;79.10;;;;;;4970922;28;20082;-68
2023/01/27 06:00:47;;;;;;;0.00;0.00;;;4.40;79.50;;;;;;4965089;28;20056;-68
2023/01/27 06:03:13;;;;;;;0.00;0.00;;;4.30;79.60;;;;;;4959876;28;20772;-68
2023/01/27 06:05:47;;;;;;;0.00;0.00;;;4.30;79.60;;;;;;4952508;28;20108;-68
2023/01/27 06:08:13;;;;;;;0.00;0.00;;;4.30;79.60;;;;;;4955288;28;20051;-68
2023/01/27 06:10:38;;;;;;;0.00;0.00;;;4.20;79.60;;;;;;4953475;28;20195;-68
2023/01/27 06:13:04;;;;;;;0.00;0.00;;;4.10;79.80;;;;;;4929978;28;20053;-68
2023/01/27 06:15:30;;;;;;;0.00;0.00;;;4.20;80.10;;;;;;4964605;28;20051;-68
2023/01/27 06:17:55;;;;;;;0.00;0.00;;;4.20;80.10;;;;;;4962965;28;20129;-69
2023/01/27 06:20:21;;;;;;;0.00;0.00;;;4.10;80.30;;;;;;4969148;28;20758;-65
2023/01/27 06:22:46;;;;;;;0.10;0.10;;;4.10;80.40;;;;;;4969577;28;20420;-68
2023/01/27 06:25:12;;;;;;;0.00;0.00;;;4.10;80.50;;;;;;4966563;28;20412;-69
2023/01/27 06:27:37;;;;;;;0.00;0.00;;;4.10;80.70;;;;;;4967835;28;20051;-69
2023/01/27 06:30:03;;;;;;;0.00;0.00;;;4.10;80.50;;;;;;4971799;28;20567;-69
2023/01/27 06:32:29;;;;;;;0.10;0.10;;;4.10;80.60;;;;;;4964384;28;20508;-68
2023/01/27 06:34:54;;;;;;;0.00;0.00;;;4.20;79.90;;;;;;4964863;28;20047;-68
2023/01/27 06:37:20;;;;;;;0.00;0.00;;;4.20;79.70;;;;;;4965349;28;20061;-68
2023/01/27 06:39:45;;;;;;;0.00;0.00;;;4.40;79.40;;;;;;4945360;28;20148;-69
2023/01/27 06:42:11;;;;;;;0.00;0.00;;;4.50;78.90;;;;;;4960384;28;20146;-69
2023/01/27 06:44:36;;;;;;;0.10;0.10;;;4.40;78.60;;;;;;4954051;28;20467;-70
2023/01/27 06:47:02;;;;;;;0.00;0.00;;;4.20;79.00;;;;;;4951287;28;20097;-69
2023/01/27 06:49:28;;;;;;;0.00;0.00;;;4.30;79.10;;;;;;4948299;28;20034;-69
2023/01/27 06:51:53;;;;;;;0.00;0.00;;;4.20;79.30;;;;;;4956855;28;20043;-69
2023/01/27 06:54:19;;;;;;;0.00;0.00;;;4.20;79.10;;;;;;4966739;28;20046;-69
2023/01/27 06:56:44;;;;;;;0.00;0.00;;;4.30;79.40;;;;;;4970312;28;20058;-70
2023/01/27 06:59:10;;;;;;;0.17;0.17;;;4.20;79.40;;;;;;4957532;28;20222;-69
2023/01/27 07:01:36;;;;;;;0.00;0.00;;;4.30;79.70;;;;;;4968601;28;20050;-69
2023/01/27 07:04:01;;;;;;;0.00;0.00;;;4.30;79.20;;;;;;4949245;28;20047;-69
2023/01/27 07:06:27;;;;;;;0.00;0.00;;;4.30;79.40;;;;;;4959545;28;20464;-69
2023/01/27 07:08:52;;;;;;;0.00;0.00;;;4.30;79.50;;;;;;4934676;28;20063;-72
2023/01/27 07:11:18;;;;;;;0.00;0.00;;;4.30;79.30;;;;;;4940448;28;20412;-70
2023/01/27 07:13:43;;;;;;;0.00;0.00;;;4.20;79.50;;;;;;4926119;28;21634;-68
2023/01/27 07:16:09;;;;;;;0.00;0.00;;;4.20;79.50;;;;;;4949494;28;20224;-69
2023/01/27 07:18:34;;;;;;;0.00;0.00;;;4.20;79.70;;;;;;4948069;28;20054;-70
2023/01/27 07:21:03;;;;;;;0.00;0.00;;;4.20;80.00;;;;;;4948591;28;20054;-70
2023/01/27 07:23:29;;;;;;;0.00;0.00;;;4.10;80.20;;;;;;4960085;28;20712;-67
2023/01/27 07:25:54;;;;;;;0.00;0.00;;;4.20;80.50;;;;;;4958735;28;20042;-66
2023/01/27 07:28:20;;;;;;;0.00;0.00;;;4.20;80.80;;;;;;4959938;28;20101;-66
2023/01/27 07:30:46;;;;;;;0.38;0.38;;;4.30;80.70;;;;;;4960109;28;20046;-65
2023/01/27 07:33:12;;;;;;;0.00;0.00;;;4.30;80.60;;;;;;4970412;28;20713;-66
2023/01/27 07:35:39;;;;;;;0.00;0.00;;;4.20;80.60;;;;;;4970444;28;20404;-66
2023/01/27 07:38:06;;;;;;;0.40;0.40;;;4.20;80.60;;;;;;4964848;28;20126;-66
2023/01/27 07:40:31;;;;;;;0.10;0.10;;;4.30;80.50;;;;;;4964324;28;20506;-66
2023/01/27 07:42:58;;;;;;;0.25;0.25;;;4.20;79.60;;;;;;4959335;28;20039;-66
2023/01/27 07:45:24;;;;;;;0.00;0.00;;;4.20;79.80;;;;;;4964717;28;20042;-67
2023/01/27 07:47:49;;;;;;;0.00;0.00;;;4.20;79.90;;;;;;4964026;28;20039;-65
2023/01/27 07:50:15;;;;;;;0.00;0.00;;;4.10;79.70;;;;;;4965382;28;20049;-66
2023/01/27 07:52:41;;;;;;;0.00;0.00;;;4.10;79.60;;;;;;4967873;28;20047;-67
2023/01/27 07:55:07;;;;;;;0.00;0.00;;;4.10;79.60;;;;;;4967928;28;20629;-69
2023/01/27 07:57:32;;;;;;;0.00;0.00;;;4.10;79.60;;;;;;4945911;28;20042;-69
2023/01/27 07:59:58;;;;;;;0.55;0.55;;;4.10;79.90;;;;;;4948940;28;20190;-68
2023/01/27 08:02:24;;;;;;;0.00;0.00;;;4.20;80.50;;;;;;4967054;28;20511;-69
2023/01/27 08:04:50;;;;;;;0.05;0.05;;;4.30;80.20;;;;;;4967428;28;20104;-69
2023/01/27 08:07:16;;;;;;;0.00;0.00;;;4.30;79.80;;;;;;4935394;28;20054;-69
2023/01/27 08:09:42;;;;;;;0.00;0.00;;;4.30;79.70;;;;;;4968050;28;20832;-70
2023/01/27 08:12:08;;;;;;;0.00;0.00;;;4.30;79.50;;;;;;4967256;28;20065;-72
2023/01/27 08:14:33;;;;;;;0.00;0.00;;;4.20;79.20;;;;;;4947351;28;20046;-68
2023/01/27 08:17:00;;;;;;;0.10;0.10;;;4.20;79.20;;;;;;4968123;28;20046;-68
2023/01/27 08:19:26;;;;;;;0.10;0.10;;;4.20;79.20;;;;;;4967387;28;20053;-69
2023/01/27 08:21:51;;;;;;;0.05;0.05;;;4.20;79.20;;;;;;4966655;28;20046;-69
2023/01/27 08:24:17;;;;;;;0.00;0.00;;;4.20;79.50;;;;;;4967314;28;20047;-69
2023/01/27 08:26:43;;;;;;;0.03;0.03;;;4.20;79.70;;;;;;4949452;28;20054;-70
2023/01/27 08:29:08;;;;;;;0.00;0.00;;;4.20;79.60;;;;;;4965170;28;20050;-69
2023/01/27 08:31:34;;;;;;;0.10;0.10;;;4.20;79.80;;;;;;4966566;28;20035;-70
2023/01/27 08:33:59;;;;;;;0.00;0.00;;;4.20;79.50;;;;;;4966766;28;20047;-70
2023/01/27 08:36:25;;;;;;;0.00;0.00;;;4.20;79.50;;;;;;4949610;28;20047;-70
2023/01/27 08:38:51;;;;;;;0.00;0.00;;;4.30;79.80;;;;;;4966609;28;20046;-70
2023/01/27 08:41:20;;;;;;;0.00;0.00;;;4.20;79.80;;;;;;4966634;28;20042;-70
2023/01/27 08:43:46;;;;;;;0.10;0.10;;;4.10;79.90;;;;;;4965634;28;20066;-69
2023/01/27 08:46:12;;;;;;;0.00;0.00;;;4.10;80.10;;;;;;4948506;28;20043;-70
2023/01/27 08:48:38;;;;;;;0.22;0.22;;;4.10;80.20;;;;;;4966278;28;20054;-70
2023/01/27 08:51:06;;;;;;;0.00;0.00;;;4.20;80.30;;;;;;4966971;28;20082;-70
2023/01/27 08:53:32;;;;;;;0.00;0.00;;;4.20;80.10;;;;;;4966941;28;20046;-70
2023/01/27 08:56:02;;;;;;;0.00;0.00;;;4.20;80.00;;;;;;4950736;28;20039;-70
2023/01/27 08:58:27;;;;;;;0.10;0.10;;;4.20;79.80;;;;;;4966906;28;20074;-70
2023/01/27 09:00:53;;;;;;;0.00;0.00;;;4.20;79.90;;;;;;4953009;28;20089;-70
2023/01/27 09:03:18;;;;;;;0.00;0.00;;;4.20;80.00;;;;;;4953871;28;20059;-70
2023/01/27 09:05:46;;;;;;;0.00;0.00;;;4.30;79.70;;;;;;4953760;28;20043;-70
2023/01/27 09:08:12;;;;;;;0.00;0.00;;;4.30;79.60;;;;;;4953677;28;20495;-70
2023/01/27 09:10:39;;;;;;;0.00;0.00;;;4.40;79.00;;;;;;4953741;28;20047;-70
2023/01/27 09:13:05;;;;;;;0.00;0.00;;;4.30;79.20;;;;;;4953220;28;20073;-70
2023/01/27 09:15:31;;;;;;;0.00;0.00;;;4.30;79.40;;;;;;4935680;28;20051;-70
2023/01/27 09:17:57;;;;;;;0.00;0.00;;;4.30;79.50;;;;;;4936869;28;20039;-70
2023/01/27 09:20:22;;;;;;;0.00;0.00;;;4.40;79.60;;;;;;4952977;28;20046;-69
2023/01/27 09:22:48;;;;;;;0.00;0.00;;;4.40;79.20;;;;;;4953912;28;20577;-68
2023/01/27 09:25:16;;;;;;;0.00;0.00;;;4.40;79.20;;;;;;4966849;28;20089;-69
2023/01/27 09:27:45;;;;;;;0.00;0.00;;;4.50;79.20;;;;;;4952550;28;20586;-69
2023/01/27 09:30:12;;;;;;;0.00;0.00;;;4.50;79.20;;;;;;4968872;28;20034;-70
2023/01/27 09:32:38;;;;;;;0.30;0.30;;;4.40;79.40;;;;;;4970964;28;20097;-70
2023/01/27 09:35:04;;;;;;;0.00;0.00;;;4.40;79.50;;;;;;4970667;28;20050;-70
2023/01/27 09:37:38;;;;;;;0.05;0.05;;;4.40;79.80;;;;;;4969828;28;20068;-70
2023/01/27 09:40:28;;;;;;;0.00;0.00;;;4.40;79.90;;;;;;4969040;28;20053;-70
2023/01/27 09:43:06;;;;;;;0.00;0.00;;;4.40;80.00;;;;;;4953210;28;20492;-70
2023/01/27 09:46:00;;;;;;;0.00;0.00;;;4.40;80.10;;;;;;4952782;28;20046;-69
2023/01/27 09:48:41;;;;;;;0.00;0.00;;;4.40;80.10;;;;;;4953417;28;20680;-70
2023/01/27 09:51:28;;;;;;;0.00;0.00;;;4.50;80.30;;;;;;4953059;28;20049;-69
2023/01/27 09:54:06;;;;;;;0.00;0.00;;;4.40;80.50;;;;;;4953291;28;20522;-70
2023/01/27 09:56:46;;;;;;;0.00;0.00;;;4.50;80.90;;;;;;4969364;28;20050;-70
2023/01/27 09:59:26;;;;;;;0.00;0.00;;;4.40;81.20;;;;;;4966681;28;20050;-71
2023/01/27 10:02:16;;;;;;;0.00;0.00;;;4.50;81.50;;;;;;4969121;28;21364;-70
2023/01/27 10:05:18;;;;;;;0.00;0.00;;;4.60;81.90;;;;;;4952314;28;20066;-70
2023/01/27 10:07:56;;;;;;;;;;;4.60;82.30;;;;;;4970103;28;20117;-70
2023/01/27 10:10:56;;;;;;;0.00;0.00;;;4.60;82.80;;;;;;4952398;28;19926;-70
2023/01/27 10:13:33;;;;;;;0.00;0.00;;;4.60;83.40;;;;;;4951971;28;20519;-70
2023/01/27 10:16:38;;;;;;;0.00;0.00;;;4.60;83.90;;;;;;4968716;28;20098;-70
2023/01/27 10:19:39;;;;;;;0.00;0.00;;;4.60;84.10;;;;;;4968262;28;20058;-70
2023/01/27 10:22:22;;;;;;;0.00;0.00;;;4.60;84.20;;;;;;4969540;28;20058;-69
2023/01/27 10:25:16;;;;;;;0.00;0.00;;;4.60;84.20;;;;;;4950503;28;20441;-69
2023/01/27 10:27:47;;;;;;;0.00;0.00;;;4.70;84.20;;;;;;4936523;28;20523;-69
2023/01/27 10:30:20;;;;;;;0.00;0.00;;;4.80;84.10;;;;;;4969351;28;20502;-69
2023/01/27 10:32:57;;;;;;;0.00;0.00;;;4.90;83.80;;;;;;4970124;28;20035;-69
2023/01/27 10:35:37;;;;;;;0.00;0.00;;;4.90;83.70;;;;;;4968120;28;20170;-69
2023/01/27 10:38:09;;;;;;;0.00;0.00;;;4.90;83.90;;;;;;4970013;28;20055;-68
2023/01/27 10:41:11;;;;;;;0.03;0.03;;;4.90;84.00;;;;;;4969433;28;20049;-68
2023/01/27 10:43:46;;;;;;;0.00;0.00;;;4.90;83.80;;;;;;4969252;28;20466;-67
2023/01/27 10:46:47;;;;;;;0.00;0.00;;;5.00;83.80;;;;;;4966551;28;20716;-70
2023/01/27 10:49:28;;;;;;;0.10;0.10;;;5.00;83.70;;;;;;4947352;28;20042;-70
2023/01/27 10:51:59;;;;;;;0.10;0.10;;;5.10;83.60;;;;;;4952298;28;20092;-69
2023/01/27 10:54:40;;;;;;;0.00;0.00;;;5.10;83.60;;;;;;4968987;28;20050;-70
2023/01/27 10:57:17;;;;;;;0.00;0.00;;;5.10;83.50;;;;;;4951847;28;20054;-70
2023/01/27 10:59:52;;;;;;;0.00;0.00;;;5.10;83.50;;;;;;4936158;28;20580;-70
2023/01/27 11:02:46;;;;;;;0.00;0.00;;;5.20;83.40;;;;;;4951846;28;20555;-70
2023/01/27 11:05:19;;;;;;;0.00;0.00;;;5.20;83.30;;;;;;4969084;28;20053;-69
2023/01/27 11:07:53;;;;;;;0.00;0.00;;;5.30;83.40;;;;;;4969130;28;20050;-70
2023/01/27 11:10:20;;;;;;;0.00;0.00;;;5.40;83.40;;;;;;4950974;28;20046;-69
2023/01/27 11:12:50;;;;;;;0.00;0.00;;;5.40;82.80;;;;;;4951254;28;20057;-70
2023/01/27 11:15:34;;;;;;;0.00;0.00;;;5.40;82.50;;;;;;4936400;28;21382;-70
2023/01/27 11:18:24;;;;;;;0.00;0.00;;;5.40;81.90;;;;;;4969050;28;20373;-69
2023/01/27 11:20:52;;;;;;;0.03;0.03;;;5.50;81.80;;;;;;4969050;28;20043;-70
2023/01/27 11:23:26;;;;;;;0.00;0.00;;;5.70;82.20;;;;;;4968618;28;20038;-70
2023/01/27 11:26:10;;;;;;;0.00;0.00;;;5.90;81.70;;;;;;4968876;28;20051;-70
2023/01/27 11:28:54;;;;;;;0.00;0.00;;;5.90;81.00;;;;;;4968484;28;20129;-69
2023/01/27 11:31:50;;;;;;;0.00;0.00;;;5.80;80.80;;;;;;4951228;28;20058;-70
2023/01/27 11:34:25;;;;;;;0.00;0.00;;;5.90;81.20;;;;;;4969247;28;20054;-70
2023/01/27 11:36:51;;;;;;;0.00;0.00;;;5.90;80.70;;;;;;4968167;28;20061;-69
2023/01/27 11:39:17;;;;;;;0.00;0.00;;;5.80;80.50;;;;;;4951696;28;20173;-70
2023/01/27 11:41:57;;;;;;;0.10;0.10;;;5.60;80.60;;;;;;4968723;28;20070;-69
2023/01/27 11:44:30;;;;;;;0.00;0.00;;;5.60;80.90;;;;;;4968812;28;20042;-69
2023/01/27 11:46:57;;;;;;;0.00;0.00;;;5.70;80.40;;;;;;4968824;28;20053;-70
2023/01/27 11:49:29;;;;;;;0.00;0.00;;;5.60;80.50;;;;;;4968556;28;20035;-70
2023/01/27 11:52:13;;;;;;;0.00;0.00;;;5.60;80.70;;;;;;4967844;28;20055;-70
2023/01/27 11:54:51;;;;;;;0.00;0.00;;;5.50;80.50;;;;;;4968589;28;20137;-69
2023/01/27 11:57:20;;;;;;;0.00;0.00;;;5.40;80.50;;;;;;4966199;28;20125;-70
2023/01/27 11:59:49;;;;;;;0.00;0.00;;;5.40;80.80;;;;;;4967851;28;20051;-69
2023/01/27 12:02:54;;;;;;;0.00;0.00;;;5.40;80.60;;;;;;4963633;28;20046;-70
2023/01/27 12:05:48;;;;;;;0.00;0.00;;;5.50;80.10;;;;;;4892677;29;20462;-70
2023/01/27 12:08:35;;;;;;;0.00;0.00;;;5.40;79.90;;;;;;4964649;28;20067;-71
2023/01/27 12:11:15;;;;;;;0.00;0.00;;;5.40;79.70;;;;;;4966084;28;20861;-70
2023/01/27 12:13:51;;;;;;;0.00;0.00;;;5.40;80.00;;;;;;4967433;28;20131;-70
2023/01/27 12:16:17;;;;;;;0.00;0.00;;;5.40;80.00;;;;;;4965784;28;20055;-70
2023/01/27 12:19:00;;;;;;;0.00;0.00;;;5.40;79.50;;;;;;4966609;28;20671;-70
2023/01/27 12:21:48;;;;;;;0.00;0.00;;;5.40;79.20;;;;;;4964751;28;20520;-70
2023/01/27 12:24:25;;;;;;;0.00;0.00;;;5.40;78.00;;;;;;4966929;28;20103;-70
2023/01/27 12:26:52;;;;;;;0.00;0.00;;;5.30;77.80;;;;;;4948721;28;20046;-70
2023/01/27 12:29:39;;;;;;;0.00;0.00;;;5.40;78.50;;;;;;4965053;28;20149;-71
2023/01/27 12:32:15;;;;;;;0.00;0.00;;;5.30;78.40;;;;;;4964575;28;20106;-72
2023/01/27 12:34:44;;;;;;;0.00;0.00;;;5.30;78.70;;;;;;4967182;28;20054;-72
2023/01/27 12:37:25;;;;;;;0.00;0.00;;;5.40;79.00;;;;;;4952753;28;20065;-72
2023/01/27 12:39:59;;;;;;;0.00;0.00;;;5.40;79.10;;;;;;4970348;28;20043;-71
2023/01/27 12:42:41;;;;;;;0.00;0.00;;;5.40;79.20;;;;;;4950965;28;20066;-72
2023/01/27 12:45:24;;;;;;;0.00;0.00;;;5.40;79.30;;;;;;4953209;28;20038;-72
2023/01/27 12:48:18;;;;;;;0.00;0.00;;;5.50;79.50;;;;;;4970787;28;20491;-71
2023/01/27 12:50:49;;;;;;;0.00;0.00;;;5.50;79.60;;;;;;4969344;28;20149;-71
2023/01/27 12:53:26;;;;;;;0.00;0.00;;;5.50;79.60;;;;;;4953348;28;20046;-71
2023/01/27 12:56:10;;;;;;;0.00;0.00;;;5.50;79.60;;;;;;4969997;28;20750;-71
2023/01/27 12:58:46;;;;;;;0.00;0.00;;;5.40;79.80;;;;;;4971153;28;20047;-70
2023/01/27 13:01:26;;;;;;;0.00;0.00;;;5.40;80.10;;;;;;4970109;28;20120;-70
2023/01/27 13:03:56;;;;;;;0.00;0.00;;;5.40;80.30;;;;;;4971307;28;20595;-70
2023/01/27 13:06:34;;;;;;;0.10;0.10;;;5.50;79.50;;;;;;4954703;28;20777;-71
2023/01/27 13:09:01;;;;;;;0.00;0.00;;;5.40;79.10;;;;;;4970768;28;20504;-71
2023/01/27 13:11:37;;;;;;;0.00;0.00;;;5.20;79.40;;;;;;4970800;28;20050;-71
2023/01/27 13:14:07;;;;;;;0.10;0.10;;;5.10;79.20;;;;;;4952453;28;20070;-71
2023/01/27 13:16:32;;;;;;;0.00;0.00;;;5.10;79.50;;;;;;4968985;28;20054;-70
2023/01/27 13:18:59;;;;;;;0.00;0.00;;;5.00;79.90;;;;;;4970124;28;20069;-71
2023/01/27 13:21:34;;;;;;;0.00;0.00;;;5.00;80.00;;;;;;4969950;28;20058;-71
2023/01/27 13:24:09;;;;;;;0.00;0.00;;;5.00;80.00;;;;;;4969719;28;21174;-70
2023/01/27 13:26:37;;;;;;;0.00;0.00;;;5.00;80.20;;;;;;4970316;28;20596;-72
2023/01/27 13:29:14;;;;;;;0.00;0.00;;;4.90;80.40;;;;;;4969897;28;20045;-69
2023/01/27 13:31:52;;;;;;;0.00;0.00;;;4.90;80.70;;;;;;4952325;28;20671;-69
2023/01/27 13:34:28;;;;;;;0.00;0.00;;;4.80;80.90;;;;;;4969492;28;20051;-69
2023/01/27 13:37:26;;;;;;;0.08;0.08;;;4.70;80.70;;;;;;4966803;28;20427;-69
2023/01/27 13:40:01;;;;;;;0.00;0.00;;;4.70;80.70;;;;;;4956030;28;20058;-69
2023/01/27 13:42:42;;;;;;;0.00;0.00;;;4.60;80.30;;;;;;4969635;28;20133;-69
2023/01/27 13:45:27;;;;;;;0.00;0.00;;;4.60;79.80;;;;;;4969238;28;20043;-70